Time;durP1;ratioP1;P1;durP2;ratioP2;P2;SDS_P1;SDS_P2;PMS_P1;PMS_P2;Temp;Humidity;BMP_temperature;BMP_pressure;BME280_temperature;BME280_humidity;BME280_pressure;Samples;Min_cycle;Max_cycle;Signal;HPM_P1;HPM_P2
2024/02/19 00:01:02;;;;;;;29.18;16.10;;;;;;;0.02;71.76;101368.93;1794890;80;25547;-57
2024/02/19 00:03:32;;;;;;;32.95;16.90;;;;;;;0.02;72.22;101367.59;1806822;79;25391;-57
2024/02/19 00:05:59;;;;;;;31.25;16.12;;;;;;;0.02;71.83;101364.10;1794979;80;27841;-56
2024/02/19 00:08:25;;;;;;;29.82;16.62;;;;;;;0.01;71.87;101353.98;1827314;78;25529;-55
2024/02/19 00:10:51;;;;;;;30.43;17.65;;;;;;;0.01;71.75;101351.84;1794880;80;25361;-54
2024/02/19 00:13:19;;;;;;;31.12;16.73;;;;;;;0.03;71.91;101343.13;1806726;79;25545;-58
2024/02/19 00:15:45;;;;;;;29.45;16.57;;;;;;;0.01;71.81;101340.68;1794909;80;25430;-55
2024/02/19 00:18:11;;;;;;;29.80;16.17;;;;;;;0.01;72.14;101335.36;1827460;78;27508;-55
2024/02/19 00:20:38;;;;;;;31.35;17.25;;;;;;;0.02;72.11;101329.52;1794839;80;25724;-56
2024/02/19 00:23:04;;;;;;;28.98;16.57;;;;;;;0.02;72.23;101326.86;1827405;78;25568;-56
2024/02/19 00:25:31;;;;;;;26.82;14.10;;;;;;;0.00;72.11;101323.11;1794871;80;26264;-57
2024/02/19 00:27:59;;;;;;;28.67;15.60;;;;;;;-0.01;72.00;101319.61;1827458;78;25522;-57
2024/02/19 00:30:27;;;;;;;27.45;15.03;;;;;;;-0.01;72.39;101312.96;1794889;80;29726;-58
2024/02/19 00:32:54;;;;;;;25.95;15.15;;;;;;;0.01;72.34;101310.61;1822638;78;25646;-56
2024/02/19 00:35:21;;;;;;;26.85;14.87;;;;;;;0.02;72.45;101300.26;1789047;79;25400;-57
2024/02/19 00:37:49;;;;;;;29.60;14.90;;;;;;;0.02;72.48;101302.42;1809842;79;25564;-55
2024/02/19 00:40:18;;;;;;;30.95;13.95;;;;;;;0.03;72.53;101296.58;1809887;79;25605;-57
2024/02/19 00:42:46;;;;;;;;;;;;;;;0.01;72.66;101287.48;1812598;79;28088;-57
2024/02/19 00:45:14;;;;;;;27.10;13.70;;;;;;;0.02;73.03;101289.61;1809804;79;25365;-55
2024/02/19 00:47:40;;;;;;;26.80;14.68;;;;;;;0.02;72.67;101293.11;1809927;78;25440;-57
2024/02/19 00:50:09;;;;;;;27.22;13.85;;;;;;;0.04;72.76;101290.23;1809943;79;25575;-57
2024/02/19 00:52:41;;;;;;;23.87;14.13;;;;;;;0.06;73.10;101294.30;1789164;80;25464;-56
2024/02/19 00:55:10;;;;;;;25.10;14.43;;;;;;;0.07;72.62;101283.14;1809857;79;27627;-57
2024/02/19 00:57:37;;;;;;;22.27;13.25;;;;;;;0.10;72.79;101288.03;1809944;79;25589;-58
2024/02/19 01:00:08;;;;;;;22.22;12.82;;;;;;;0.12;73.02;101284.64;1809888;79;25442;-57
2024/02/19 01:02:35;;;;;;;20.60;11.80;;;;;;;0.13;72.80;101279.62;1788993;80;25546;-56
2024/02/19 01:05:05;;;;;;;22.63;12.67;;;;;;;0.15;72.69;101282.88;1810178;79;25444;-57
2024/02/19 01:07:31;;;;;;;19.03;12.00;;;;;;;0.16;72.80;101279.20;1810109;79;27460;-57
2024/02/19 01:09:58;;;;;;;20.70;12.13;;;;;;;0.18;73.04;101267.83;1809771;79;25935;-55
2024/02/19 01:12:24;;;;;;;18.52;11.22;;;;;;;0.18;72.64;101261.98;1788959;80;25617;-56
2024/02/19 01:14:51;;;;;;;21.00;11.68;;;;;;;0.20;72.92;101248.98;1809807;79;25586;-58
2024/02/19 01:17:17;;;;;;;20.70;10.95;;;;;;;0.23;72.60;101249.89;1809911;78;25399;-55
2024/02/19 01:19:45;;;;;;;21.80;10.98;;;;;;;0.23;72.53;101236.58;1789048;80;27508;-57
2024/02/19 01:22:11;;;;;;;17.62;11.03;;;;;;;0.23;72.42;101237.91;1809786;78;25865;-57
2024/02/19 01:24:37;;;;;;;16.97;11.48;;;;;;;0.25;72.59;101235.84;1788990;80;25404;-54
2024/02/19 01:27:06;;;;;;;16.15;11.15;;;;;;;0.26;72.51;101236.96;1803590;79;25692;-57
2024/02/19 01:29:35;;;;;;;16.15;10.75;;;;;;;0.26;73.11;101220.99;1789064;80;25553;-57
2024/02/19 01:32:05;;;;;;;17.37;11.12;;;;;;;0.28;72.29;101216.79;1809920;78;27476;-57
2024/02/19 01:34:31;;;;;;;19.27;11.60;;;;;;;0.27;72.47;101211.95;1824001;78;25516;-54
2024/02/19 01:36:58;;;;;;;17.67;11.25;;;;;;;0.28;72.57;101216.79;1794923;79;25501;-55
2024/02/19 01:39:26;;;;;;;15.48;10.05;;;;;;;0.28;72.83;101206.95;1827543;78;26291;-55
2024/02/19 01:41:53;;;;;;;16.80;9.88;;;;;;;0.30;72.37;101203.55;1795035;80;25576;-55
2024/02/19 01:52:20;;;;;;;15.88;9.58;;;;;;;0.31;72.21;101182.56;1795010;80;25668;-58
2024/02/19 01:54:48;;;;;;;14.68;9.90;;;;;;;0.31;72.32;101171.12;1794975;80;25553;-57
2024/02/19 01:57:16;;;;;;;17.62;10.53;;;;;;;0.32;72.29;101174.89;1795011;80;25461;-54
2024/02/19 01:59:44;;;;;;;13.70;8.85;;;;;;;0.31;72.37;101162.61;1827513;78;27507;-56
2024/02/19 02:02:13;;;;;;;16.10;8.73;;;;;;;0.31;72.21;101161.80;1794916;80;25517;-55
2024/02/19 02:04:41;;;;;;;13.88;8.63;;;;;;;0.31;72.14;101149.83;1827666;78;25487;-54
2024/02/19 02:07:09;;;;;;;14.43;8.48;;;;;;;0.30;72.37;101141.00;1794950;80;26015;-56
2024/02/19 02:09:37;;;;;;;14.73;9.05;;;;;;;0.31;72.20;101132.00;1806914;79;25638;-55
2024/02/19 02:12:06;;;;;;;15.00;9.50;;;;;;;0.30;72.10;101137.02;1794982;80;28022;-57
2024/02/19 02:14:32;;;;;;;14.73;9.23;;;;;;;0.31;72.36;101117.36;1806916;79;25412;-59
2024/02/19 02:16:58;;;;;;;14.35;8.55;;;;;;;0.29;72.27;101112.78;1795010;80;25454;-58
2024/02/19 02:19:24;;;;;;;16.12;8.93;;;;;;;0.28;72.00;101115.66;1827472;78;25577;-57
2024/02/19 02:21:53;;;;;;;13.75;9.00;;;;;;;0.26;72.40;101105.23;1795011;80;32700;-57
2024/02/19 02:24:19;;;;;;;14.70;8.65;;;;;;;0.24;72.16;101096.66;1806830;79;27474;-57
2024/02/19 02:26:45;;;;;;;14.05;9.08;;;;;;;0.22;72.24;101094.72;1794898;80;25364;-57
2024/02/19 02:29:12;;;;;;;12.53;7.95;;;;;;;0.20;72.63;101098.13;1806797;79;25428;-56
2024/02/19 02:31:38;;;;;;;10.68;7.62;;;;;;;0.16;71.91;101103.07;1794860;80;25592;-58
2024/02/19 02:34:05;;;;;;;15.98;8.73;;;;;;;0.13;72.98;101093.39;1805265;79;25448;-58
2024/02/19 02:36:31;;;;;;;13.95;7.65;;;;;;;0.12;72.68;101097.07;1789042;80;27557;-58
2024/02/19 02:39:00;;;;;;;12.58;7.45;;;;;;;0.08;72.20;101086.58;1809840;79;25525;-57
2024/02/19 02:41:27;;;;;;;12.90;8.70;;;;;;;0.06;72.62;101080.67;1810090;79;25395;-57
2024/02/19 02:43:53;;;;;;;13.95;8.95;;;;;;;0.05;72.41;101087.84;1809942;79;25595;-58
2024/02/19 02:46:21;;;;;;;10.63;7.92;;;;;;;0.03;72.39;101077.12;1789222;80;25579;-57
2024/02/19 02:48:47;;;;;;;13.28;8.13;;;;;;;-0.02;72.06;101081.26;1809928;79;27486;-57
2024/02/19 02:51:14;;;;;;;14.87;7.67;;;;;;;-0.06;72.48;101078.72;1809874;79;25435;-57
2024/02/19 02:53:40;;;;;;;10.68;7.22;;;;;;;-0.08;72.79;101072.01;1809908;78;25442;-58
2024/02/19 02:56:20;;;;;;;14.80;8.58;;;;;;;-0.10;72.69;101078.88;1789138;80;25522;-57
2024/02/19 02:58:50;;;;;;;13.65;8.20;;;;;;;-0.11;72.80;101078.56;1803547;79;25666;-54
2024/02/19 03:01:27;;;;;;;12.50;8.10;;;;;;;-0.13;72.98;101074.52;1789260;80;27474;-57
2024/02/19 03:03:54;;;;;;;14.20;8.53;;;;;;;-0.16;72.46;101062.45;1803641;79;25572;-57
2024/02/19 03:06:21;;;;;;;13.50;8.03;;;;;;;-0.20;72.71;101053.30;1789062;80;25563;-56
2024/02/19 03:08:47;;;;;;;15.18;7.70;;;;;;;-0.22;72.71;101037.55;1803663;79;26112;-57
2024/02/19 03:11:15;;;;;;;11.63;6.60;;;;;;;-0.25;72.80;101030.53;1789189;80;25581;-57
2024/02/19 03:13:42;;;;;;;12.73;7.25;;;;;;;-0.26;73.11;101031.03;1809888;79;25929;-54
2024/02/19 03:16:09;;;;;;;11.33;6.87;;;;;;;-0.27;73.08;101021.97;1809854;79;25633;-54
2024/02/19 03:18:37;;;;;;;12.93;7.50;;;;;;;-0.26;73.18;101024.38;1809921;79;25438;-56
2024/02/19 03:21:07;;;;;;;11.83;8.10;;;;;;;-0.26;73.37;101040.86;1789176;80;25542;-54
2024/02/19 03:23:35;;;;;;;13.85;8.45;;;;;;;-0.26;73.09;101033.69;1803857;79;25439;-55
2024/02/19 03:26:02;;;;;;;9.28;6.80;;;;;;;-0.26;73.08;101031.55;1789035;80;27490;-54
2024/02/19 03:28:28;;;;;;;11.60;7.97;;;;;;;-0.25;73.37;101018.57;1803559;79;26077;-56
2024/02/19 03:30:55;;;;;;;14.43;8.55;;;;;;;-0.24;73.20;101010.37;1789056;80;25566;-57
2024/02/19 03:33:23;;;;;;;12.65;7.95;;;;;;;-0.21;73.33;101005.92;1803525;79;26346;-55
2024/02/19 03:35:49;;;;;;;14.28;8.95;;;;;;;-0.20;73.01;101008.89;1789152;80;25573;-56
2024/02/19 03:38:15;;;;;;;12.85;8.35;;;;;;;-0.19;73.21;100999.06;1809913;79;27375;-57
2024/02/19 03:40:42;;;;;;;11.03;7.80;;;;;;;-0.19;72.94;100993.74;1809791;79;25524;-55
2024/02/19 03:43:09;;;;;;;12.45;7.53;;;;;;;-0.19;73.01;100987.09;1809891;79;25568;-56
2024/02/19 03:45:37;;;;;;;12.03;7.90;;;;;;;-0.18;73.18;100993.25;1809861;78;25510;-55
2024/02/19 03:48:07;;;;;;;13.65;8.20;;;;;;;-0.17;72.70;100994.86;1789082;80;25553;-58
2024/02/19 03:50:34;;;;;;;10.68;7.72;;;;;;;-0.16;72.77;100988.52;1810061;79;27450;-54
2024/02/19 03:53:00;;;;;;;11.60;7.00;;;;;;;-0.15;72.83;100977.66;1809760;79;25529;-57
2024/02/19 03:55:26;;;;;;;10.53;6.35;;;;;;;-0.15;72.67;100967.52;1809893;79;25568;-57
2024/02/19 03:57:54;;;;;;;12.23;6.75;;;;;;;-0.15;72.53;100971.02;1809812;79;25571;-57
2024/02/19 04:00:23;;;;;;;12.95;7.40;;;;;;;-0.12;72.60;100972.41;1809931;79;25563;-57
2024/02/19 04:02:49;;;;;;;10.90;7.92;;;;;;;-0.08;72.41;100984.24;1810041;79;27510;-57
2024/02/19 04:05:15;;;;;;;11.70;8.08;;;;;;;-0.08;72.45;100982.39;1809827;79;25557;-58
2024/02/19 04:07:41;;;;;;;11.57;7.20;;;;;;;-0.07;72.30;100968.56;1809899;79;25560;-55
2024/02/19 04:10:10;;;;;;;11.48;7.03;;;;;;;-0.07;72.37;100971.22;1809848;79;25639;-57
2024/02/19 04:12:38;;;;;;;15.10;6.53;;;;;;;-0.07;72.36;100975.21;1810059;79;29982;-55
2024/02/19 04:15:08;;;;;;;12.10;7.05;;;;;;;-0.08;72.33;100978.40;1789014;80;27594;-57
2024/02/19 04:17:35;;;;;;;11.57;6.92;;;;;;;-0.07;72.36;100978.70;1809974;79;25421;-56
2024/02/19 04:20:05;;;;;;;11.00;6.90;;;;;;;-0.05;72.27;100965.16;1809887;79;25505;-56
2024/02/19 04:22:31;;;;;;;13.40;7.42;;;;;;;-0.05;72.39;100953.19;1809862;79;25563;-57
2024/02/19 04:24:58;;;;;;;8.78;6.60;;;;;;;-0.05;72.32;100967.32;1809955;78;25435;-54
2024/02/19 04:27:25;;;;;;;12.15;7.22;;;;;;;-0.05;72.23;100962.50;1809891;78;28128;-53
2024/02/19 04:29:51;;;;;;;13.65;7.45;;;;;;;-0.06;72.36;100938.28;1788934;80;25543;-58
2024/02/19 04:32:17;;;;;;;13.05;7.72;;;;;;;-0.07;72.35;100916.20;1809822;79;25529;-54
2024/02/19 04:34:44;;;;;;;10.20;7.08;;;;;;;-0.05;72.29;100917.28;1818052;78;25461;-54
2024/02/19 04:37:10;;;;;;;10.45;6.70;;;;;;;-0.08;72.49;100923.88;1794927;80;25523;-58
2024/02/19 04:39:37;;;;;;;12.40;7.25;;;;;;;-0.09;72.53;100906.28;1827399;78;27565;-53
2024/02/19 04:42:04;;;;;;;12.43;7.92;;;;;;;-0.12;72.56;100905.92;1794787;80;25531;-56
2024/02/19 04:44:31;;;;;;;12.13;8.08;;;;;;;-0.12;73.04;100901.93;1827520;78;25454;-55
2024/02/19 04:46:59;;;;;;;12.55;7.30;;;;;;;-0.14;73.08;100899.49;1794861;80;25718;-57
2024/02/19 04:49:27;;;;;;;10.03;7.78;;;;;;;-0.16;72.72;100890.93;1827428;78;25581;-53
2024/02/19 04:51:54;;;;;;;11.70;7.60;;;;;;;-0.16;72.77;100882.95;1794861;80;27456;-58
2024/02/19 04:54:20;;;;;;;12.45;8.33;;;;;;;-0.16;72.85;100867.00;1806596;79;25390;-57
2024/02/19 04:56:48;;;;;;;14.33;8.30;;;;;;;-0.17;73.02;100857.91;1794883;80;25545;-55
2024/02/19 04:59:15;;;;;;;12.13;7.62;;;;;;;-0.18;73.22;100864.28;1827319;78;25536;-56
2024/02/19 05:01:42;;;;;;;10.68;7.20;;;;;;;-0.19;73.08;100872.75;1794894;80;25460;-56
2024/02/19 05:04:08;;;;;;;11.43;8.65;;;;;;;-0.21;73.35;100860.20;1827427;78;28060;-58
2024/02/19 05:06:34;;;;;;;14.30;8.53;;;;;;;-0.22;73.12;100856.75;1794809;80;25889;-55
2024/02/19 05:09:00;;;;;;;13.93;8.20;;;;;;;-0.24;73.36;100853.50;1827463;78;25386;-57
2024/02/19 05:11:27;;;;;;;13.10;8.68;;;;;;;-0.23;73.20;100878.23;1794949;79;25530;-57
2024/02/19 05:13:53;;;;;;;14.78;8.70;;;;;;;-0.24;73.51;100876.60;1827711;77;25196;-58
2024/02/19 05:16:19;;;;;;;13.20;8.03;;;;;;;-0.25;73.75;100862.50;1795054;80;27435;-54
2024/02/19 05:18:46;;;;;;;14.55;8.38;;;;;;;-0.26;73.31;100858.21;1827506;78;25372;-56
2024/02/19 05:21:14;;;;;;;15.40;9.40;;;;;;;-0.26;73.66;100870.70;1795049;80;25443;-55
2024/02/19 05:23:41;;;;;;;13.03;8.50;;;;;;;-0.28;73.43;100854.97;1806988;79;32771;-55
2024/02/19 05:26:09;;;;;;;13.05;8.03;;;;;;;-0.26;73.39;100852.89;1795073;80;25445;-59
2024/02/19 05:28:36;;;;;;;13.83;8.80;;;;;;;-0.28;73.57;100849.65;1827674;78;27573;-59
2024/02/19 05:31:05;;;;;;;13.35;8.25;;;;;;;-0.29;73.74;100851.20;1794963;80;26076;-59
2024/02/19 05:33:33;;;;;;;17.10;8.80;;;;;;;-0.31;73.78;100839.98;1806998;79;25578;-57
2024/02/19 05:35:59;;;;;;;14.70;9.18;;;;;;;-0.32;73.68;100840.51;1794964;80;25440;-56
2024/02/19 05:38:25;;;;;;;13.53;8.63;;;;;;;-0.33;74.31;100832.23;1806901;79;25475;-58
2024/02/19 05:40:53;;;;;;;13.03;9.63;;;;;;;-0.34;74.03;100827.13;1794978;80;28574;-57
2024/02/19 05:43:19;;;;;;;13.83;8.85;;;;;;;-0.33;74.13;100823.45;1827489;78;25416;-57
2024/02/19 05:45:48;;;;;;;17.10;9.23;;;;;;;-0.34;73.86;100819.16;1795024;80;25489;-58
2024/02/19 05:48:15;;;;;;;13.68;8.48;;;;;;;-0.36;73.91;100804.75;1827486;78;25620;-59
2024/02/19 05:50:41;;;;;;;15.35;9.30;;;;;;;-0.35;73.92;100810.91;1795078;80;25594;-56
2024/02/19 05:53:07;;;;;;;12.55;9.50;;;;;;;-0.35;74.17;100796.28;1827514;78;27465;-56
2024/02/19 05:55:34;;;;;;;15.18;9.53;;;;;;;-0.37;74.33;100799.16;1794969;80;25935;-56
2024/02/19 05:58:01;;;;;;;16.50;9.68;;;;;;;-0.36;74.17;100798.11;1806860;79;25433;-57
2024/02/19 06:00:27;;;;;;;16.02;9.43;;;;;;;-0.36;74.65;100794.65;1794954;80;25774;-58
2024/02/19 06:02:53;;;;;;;16.30;9.68;;;;;;;-0.34;74.18;100787.25;1827557;77;25376;-56
2024/02/19 06:05:19;;;;;;;15.28;9.35;;;;;;;-0.36;74.22;100772.05;1794995;80;27444;-57
2024/02/19 06:07:47;;;;;;;18.23;11.10;;;;;;;-0.34;74.39;100778.78;1827478;78;25386;-56
2024/02/19 06:10:14;;;;;;;18.32;10.45;;;;;;;-0.32;74.62;100778.53;1795015;80;25487;-58
2024/02/19 06:12:41;;;;;;;17.37;11.25;;;;;;;-0.31;74.15;100770.33;1827531;78;25482;-55
2024/02/19 06:15:09;;;;;;;15.98;9.50;;;;;;;-0.31;74.21;100774.32;1795003;80;25447;-58
2024/02/19 06:17:36;;;;;;;14.75;10.55;;;;;;;-0.31;74.29;100758.90;1795058;80;27630;-57
2024/02/19 06:20:05;;;;;;;16.85;10.53;;;;;;;-0.33;74.91;100756.46;1827220;78;25391;-58
2024/02/19 06:22:32;;;;;;;17.60;11.60;;;;;;;-0.34;74.61;100772.64;1794828;79;25395;-57
2024/02/19 06:24:59;;;;;;;17.40;11.18;;;;;;;-0.29;74.39;100784.73;1827585;78;25517;-54
2024/02/19 06:27:26;;;;;;;17.07;11.12;;;;;;;-0.31;74.93;100791.61;1795003;80;25438;-58
2024/02/19 06:29:52;;;;;;;16.27;10.28;;;;;;;-0.32;74.55;100787.34;1827571;78;27513;-57
2024/02/19 06:32:18;;;;;;;18.42;11.45;;;;;;;-0.31;74.45;100795.59;1794887;80;27275;-57
2024/02/19 06:34:46;;;;;;;18.67;11.10;;;;;;;-0.29;74.53;100793.55;1827382;78;25690;-58
2024/02/19 06:37:13;;;;;;;17.55;10.50;;;;;;;-0.27;74.64;100815.92;1794980;80;25602;-58
2024/02/19 06:39:41;;;;;;;17.80;9.90;;;;;;;-0.27;74.47;100781.36;1806859;79;25394;-56
2024/02/19 06:42:09;;;;;;;16.20;10.20;;;;;;;-0.25;74.47;100788.06;1794999;80;27487;-55
2024/02/19 06:44:36;;;;;;;15.13;10.48;;;;;;;-0.21;74.41;100788.41;1827420;78;25560;-58
2024/02/19 06:47:05;;;;;;;18.48;10.90;;;;;;;-0.16;74.38;100765.15;1794991;80;25561;-65
2024/02/19 06:49:32;;;;;;;14.65;9.28;;;;;;;-0.13;74.31;100750.08;1827521;78;25570;-58
2024/02/19 06:51:58;;;;;;;17.20;10.13;;;;;;;-0.10;74.30;100748.27;1794979;80;25375;-58
2024/02/19 06:54:26;;;;;;;18.12;10.38;;;;;;;-0.07;74.21;100732.70;1806808;79;27390;-58
2024/02/19 06:56:52;;;;;;;19.32;10.78;;;;;;;-0.04;74.30;100720.78;1794868;80;25392;-58
2024/02/19 06:59:19;;;;;;;17.77;10.48;;;;;;;-0.01;74.29;100726.98;1806810;79;25583;-58
2024/02/19 07:01:46;;;;;;;17.75;10.30;;;;;;;0.03;74.19;100715.36;1794895;80;25603;-58
2024/02/19 07:04:13;;;;;;;14.18;9.20;;;;;;;0.04;74.09;100713.00;1827573;78;25566;-54
2024/02/19 07:06:39;;;;;;;15.00;10.30;;;;;;;0.12;74.15;100723.28;1794962;80;27592;-57
2024/02/19 07:09:06;;;;;;;17.87;10.55;;;;;;;0.18;74.12;100737.82;1827401;78;25632;-55
2024/02/19 07:11:32;;;;;;;15.78;10.45;;;;;;;0.27;74.02;100730.84;1794984;80;25643;-58
2024/02/19 07:13:58;;;;;;;17.50;10.68;;;;;;;0.36;73.78;100729.48;1827415;78;25498;-57
2024/02/19 07:16:24;;;;;;;14.30;9.03;;;;;;;0.46;73.92;100723.06;1794938;80;25418;-58
2024/02/19 07:18:51;;;;;;;15.98;9.33;;;;;;;0.54;73.64;100699.27;1794916;80;27547;-58
2024/02/19 07:21:20;;;;;;;15.32;10.03;;;;;;;0.65;73.31;100694.46;1794832;80;25537;-58
2024/02/19 07:23:46;;;;;;;15.00;9.70;;;;;;;0.71;72.88;100704.69;1827619;77;25548;-58
2024/02/19 07:26:13;;;;;;;19.42;9.13;;;;;;;0.71;72.73;100696.17;1795031;80;25443;-57
2024/02/19 07:28:41;;;;;;;14.93;8.63;;;;;;;0.78;72.82;100695.25;1806446;79;25391;-55
2024/02/19 07:31:08;;;;;;;11.55;8.18;;;;;;;0.82;72.64;100691.89;1793497;79;28488;-59
2024/02/19 07:33:35;;;;;;;15.70;8.65;;;;;;;0.84;72.13;100697.80;1805373;79;25712;-58
2024/02/19 07:36:01;;;;;;;15.23;9.05;;;;;;;0.80;72.26;100705.14;1794109;79;25647;-57
2024/02/19 07:38:27;;;;;;;18.52;9.08;;;;;;;0.80;72.21;100697.16;1827473;78;26056;-58
2024/02/19 07:40:53;;;;;;;12.47;8.20;;;;;;;0.80;72.22;100687.83;1794946;80;25436;-57
2024/02/19 07:43:20;;;;;;;14.73;8.45;;;;;;;0.81;72.29;100678.28;1806756;79;27443;-54
2024/02/19 07:45:46;;;;;;;13.40;8.35;;;;;;;0.85;72.27;100690.10;1794857;80;27276;-59
2024/02/19 07:48:12;;;;;;;13.68;8.83;;;;;;;0.90;72.24;100675.56;1827441;78;25520;-57
2024/02/19 07:50:40;;;;;;;18.77;9.70;;;;;;;0.90;71.93;100678.22;1794898;80;25575;-58
2024/02/19 07:53:08;;;;;;;15.13;9.08;;;;;;;0.96;71.92;100682.32;1806747;79;25672;-56
2024/02/19 07:55:37;;;;;;;14.87;8.43;;;;;;;0.97;71.79;100677.27;1794918;80;27497;-57
2024/02/19 07:58:05;;;;;;;15.78;8.98;;;;;;;0.97;71.82;100697.24;1806735;79;25474;-57
2024/02/19 08:00:31;;;;;;;14.40;9.23;;;;;;;0.96;71.82;100693.78;1794932;79;25368;-55
2024/02/19 08:02:57;;;;;;;17.17;9.68;;;;;;;0.97;71.82;100676.77;1827429;78;26091;-56
2024/02/19 08:05:23;;;;;;;14.63;9.80;;;;;;;0.99;71.87;100673.84;1794950;80;25443;-58
2024/02/19 08:07:51;;;;;;;15.50;9.50;;;;;;;1.00;71.83;100658.95;1827486;78;27640;-58
2024/02/19 08:10:17;;;;;;;18.07;9.75;;;;;;;1.01;71.95;100651.79;1794859;80;25623;-58
2024/02/19 08:12:43;;;;;;;13.32;9.00;;;;;;;1.02;71.86;100657.39;1806768;79;25442;-57
2024/02/19 08:15:11;;;;;;;16.70;10.38;;;;;;;1.03;71.89;100651.83;1794854;80;25592;-58
2024/02/19 08:17:37;;;;;;;13.62;8.98;;;;;;;1.05;71.96;100628.95;1827552;78;25596;-58
2024/02/19 08:20:08;;;;;;;17.55;10.72;;;;;;;1.07;71.87;100642.33;1794892;80;27501;-56
2024/02/19 08:22:34;;;;;;;18.90;10.10;;;;;;;1.08;71.82;100633.80;1827424;78;25471;-59
2024/02/19 08:25:01;;;;;;;17.30;9.63;;;;;;;1.08;71.80;100636.47;1794991;80;25609;-57
2024/02/19 08:27:27;;;;;;;18.92;10.08;;;;;;;1.11;71.70;100638.66;1794885;80;25523;-58
2024/02/19 08:29:55;;;;;;;18.50;9.90;;;;;;;1.16;71.93;100632.10;1794950;80;25407;-57
2024/02/19 08:32:21;;;;;;;17.57;9.88;;;;;;;1.22;71.68;100644.98;1827487;78;27521;-54
2024/02/19 08:34:47;;;;;;;15.58;10.60;;;;;;;1.21;71.61;100628.20;1794931;80;25834;-58
2024/02/19 08:37:17;;;;;;;21.90;10.50;;;;;;;1.23;71.60;100641.29;1827397;78;25825;-56
2024/02/19 08:39:42;;;;;;;16.65;10.95;;;;;;;1.24;71.66;100628.23;1794202;80;25511;-55
2024/02/19 08:42:09;;;;;;;17.75;11.55;;;;;;;1.25;71.58;100631.99;1827500;78;25454;-57
2024/02/19 08:44:36;;;;;;;19.57;11.80;;;;;;;1.26;71.48;100637.63;1794973;80;29647;-57
2024/02/19 08:47:07;;;;;;;16.77;10.43;;;;;;;1.26;71.58;100630.95;1806905;79;25435;-58
2024/02/19 08:49:32;;;;;;;16.57;10.85;;;;;;;1.29;71.63;100634.98;1794350;80;25622;-58
2024/02/19 08:52:00;;;;;;;18.90;11.95;;;;;;;1.30;71.52;100637.95;1827800;78;25595;-56
2024/02/19 08:54:28;;;;;;;19.82;13.28;;;;;;;1.30;71.63;100625.42;1795125;80;25463;-57
2024/02/19 08:56:56;;;;;;;19.57;11.28;;;;;;;1.38;71.89;100622.91;1827609;78;29614;-59
2024/02/19 08:59:22;;;;;;;21.73;12.75;;;;;;;1.43;71.75;100627.50;1795048;80;25581;-59
2024/02/19 09:01:48;;;;;;;21.15;12.37;;;;;;;1.46;71.73;100629.19;1795096;80;25569;-58
2024/02/19 09:04:16;;;;;;;19.25;12.23;;;;;;;1.54;71.83;100627.17;1806935;79;25511;-58
2024/02/19 09:06:43;;;;;;;17.82;11.78;;;;;;;1.59;71.78;100624.59;1795084;80;25364;-59
2024/02/19 09:09:11;;;;;;;20.40;12.10;;;;;;;1.64;71.62;100624.14;1827620;78;27625;-56
2024/02/19 09:11:39;;;;;;;20.30;12.45;;;;;;;1.69;71.48;100619.43;1794989;80;26256;-59
2024/02/19 09:14:05;;;;;;;21.73;13.38;;;;;;;1.70;71.22;100618.36;1827558;78;25560;-56
2024/02/19 09:16:33;;;;;;;20.43;10.95;;;;;;;1.71;71.40;100606.66;1795025;80;25788;-59
2024/02/19 09:19:05;;;;;;;23.95;13.32;;;;;;;1.76;71.68;100602.73;1827645;78;25590;-58
2024/02/19 09:21:29;;;;;;;;;;;;;;;1.83;71.26;100599.91;1797189;80;27672;-58
2024/02/19 09:23:55;;;;;;;19.40;11.38;;;;;;;1.88;71.35;100595.19;1806840;79;33075;-59
2024/02/19 09:26:21;;;;;;;18.77;11.63;;;;;;;1.91;71.44;100600.02;1795082;80;25747;-58
2024/02/19 09:28:48;;;;;;;17.23;12.10;;;;;;;2.01;71.69;100595.66;1827589;78;25620;-55
2024/02/19 09:31:15;;;;;;;19.67;13.05;;;;;;;2.10;71.43;100594.72;1794433;80;25614;-54
2024/02/19 09:33:42;;;;;;;23.42;13.22;;;;;;;2.13;71.01;100598.73;1827570;78;27460;-57
2024/02/19 09:36:12;;;;;;;16.50;11.05;;;;;;;2.12;70.61;100596.61;1792685;80;25379;-56
2024/02/19 09:38:36;;;;;;;20.85;12.78;;;;;;;2.11;70.48;100590.17;1809458;79;25485;-54
2024/02/19 09:41:05;;;;;;;21.48;12.10;;;;;;;2.11;70.73;100583.50;1809989;79;25464;-56
2024/02/19 09:43:34;;;;;;;19.57;12.47;;;;;;;2.14;70.63;100583.02;1810205;79;25423;-57
2024/02/19 09:46:07;;;;;;;24.92;14.50;;;;;;;2.21;70.92;100583.64;1810021;79;27746;-56
2024/02/19 09:48:34;;;;;;;16.93;12.00;;;;;;;2.25;70.90;100575.45;1809813;79;25554;-56
2024/02/19 09:51:04;;;;;;;21.02;12.50;;;;;;;2.33;70.86;100572.86;1809967;79;25514;-56
2024/02/19 09:53:34;;;;;;;18.00;11.78;;;;;;;2.39;70.69;100571.89;1810020;79;25529;-56
2024/02/19 09:56:00;;;;;;;22.05;13.35;;;;;;;2.42;70.56;100562.05;1789024;80;25606;-57
2024/02/19 09:58:29;;;;;;;20.15;11.43;;;;;;;2.45;70.55;100555.39;1810087;79;27528;-57
2024/02/19 10:00:56;;;;;;;21.35;14.63;;;;;;;2.49;70.42;100548.52;1809950;78;25376;-56
2024/02/19 10:03:22;;;;;;;18.02;12.07;;;;;;;2.56;70.96;100563.83;1810005;79;25525;-57
2024/02/19 10:05:50;;;;;;;20.70;13.60;;;;;;;2.61;70.90;100559.34;1789102;80;25568;-57
2024/02/19 10:08:16;;;;;;;19.15;13.10;;;;;;;2.67;70.66;100556.19;1810031;79;25369;-58
2024/02/19 10:10:42;;;;;;;19.15;13.08;;;;;;;2.69;70.86;100558.11;1809989;79;27203;-57
2024/02/19 10:13:12;;;;;;;19.67;13.43;;;;;;;2.70;71.00;100549.02;1789033;80;25520;-55
2024/02/19 10:15:40;;;;;;;19.40;13.10;;;;;;;2.67;71.52;100560.73;1809969;79;25472;-58
2024/02/19 10:18:17;;;;;;;20.20;13.18;;;;;;;2.62;71.88;100546.78;1810001;78;25603;-57
2024/02/19 10:20:50;;;;;;;20.32;13.85;;;;;;;2.59;72.64;100550.77;1810129;78;25545;-58
2024/02/19 10:23:22;;;;;;;23.40;14.43;;;;;;;2.59;73.29;100549.98;1789174;80;27814;-57
2024/02/19 10:25:49;;;;;;;19.62;14.40;;;;;;;2.54;73.30;100541.37;1809456;79;25945;-56
2024/02/19 10:28:21;;;;;;;21.42;13.93;;;;;;;2.52;73.95;100538.66;1809197;79;25642;-57
2024/02/19 10:30:47;;;;;;;19.92;14.33;;;;;;;2.48;74.26;100530.88;1809153;79;25788;-57
2024/02/19 10:33:13;;;;;;;21.57;13.93;;;;;;;2.48;74.97;100526.33;1809175;79;25641;-55
2024/02/19 10:35:42;;;;;;;22.90;14.93;;;;;;;2.51;76.12;100523.70;1809820;78;27485;-53
2024/02/19 10:38:10;;;;;;;21.47;14.33;;;;;;;2.53;76.19;100530.39;1794531;80;25632;-53
2024/02/19 10:40:37;;;;;;;21.25;14.35;;;;;;;2.50;76.13;100516.73;1827062;78;25675;-57
2024/02/19 10:43:05;;;;;;;25.65;15.20;;;;;;;2.48;76.76;100516.98;1794970;80;25485;-59
2024/02/19 10:45:34;;;;;;;27.62;16.25;;;;;;;2.45;76.96;100513.47;1827678;78;25617;-58
2024/02/19 10:48:03;;;;;;;25.48;15.68;;;;;;;2.41;77.35;100508.36;1795158;80;27480;-57
2024/02/19 10:50:34;;;;;;;22.90;16.07;;;;;;;2.37;77.54;100505.92;1827439;78;26015;-57
2024/02/19 10:53:00;;;;;;;23.07;15.55;;;;;;;2.35;77.84;100506.67;1794975;80;25411;-57
2024/02/19 10:55:31;;;;;;;23.42;14.93;;;;;;;2.33;78.22;100498.91;1796338;78;25582;-57
2024/02/19 10:57:57;;;;;;;27.93;16.42;;;;;;;2.33;79.02;100496.25;1794954;80;25373;-57
2024/02/19 11:00:27;;;;;;;25.10;16.15;;;;;;;2.34;79.35;100497.08;1827594;78;28117;-59
2024/02/19 11:03:13;;;;;;;25.77;15.80;;;;;;;2.34;79.64;100488.53;1794949;80;25620;-58
2024/02/19 11:05:44;;;;;;;27.90;15.72;;;;;;;2.33;80.30;100486.10;1827581;78;25415;-58
2024/02/19 11:08:20;;;;;;;26.50;16.30;;;;;;;2.31;80.21;100477.01;1795000;80;25553;-58
2024/02/19 11:10:49;;;;;;;24.85;15.23;;;;;;;2.30;81.11;100469.24;1806860;79;25295;-56
2024/02/19 11:13:21;;;;;;;26.20;15.18;;;;;;;2.25;80.83;100474.02;1795126;80;28060;-56
2024/02/19 11:15:49;;;;;;;24.57;14.93;;;;;;;2.19;80.59;100475.00;1827467;78;25576;-57
2024/02/19 11:18:19;;;;;;;26.97;15.50;;;;;;;2.12;80.90;100467.17;1795006;80;25589;-57
2024/02/19 11:20:48;;;;;;;26.60;14.73;;;;;;;2.09;81.05;100455.66;1827528;78;25610;-55
2024/02/19 11:23:18;;;;;;;29.40;16.50;;;;;;;2.09;81.41;100459.66;1795176;80;25546;-56
2024/02/19 11:25:46;;;;;;;25.57;15.63;;;;;;;2.11;82.48;100454.08;1827585;78;28102;-61
2024/02/19 11:28:13;;;;;;;25.17;14.80;;;;;;;2.06;81.70;100453.52;1794868;80;25354;-55